Port Au Choix, Canada
Current Conditions -  °F | °C
As of 3:00 AM on Monday 22 Dec 2014 (Local Time) from CWDH Reporting Station
Overcast Overcast  
Wind Chill: -3°   Ceiling: 1600
Heat Index: -3°   Visibility: 9mi
Dew Point: -7°   Wind: 2mph
Humidity: 76%   Direction: 350°N
Pressure: 30.36"   Gusts: NA
Location:  50.72°N, 57.37°W
Report Text: CWDH 220600Z AUTO 35002KT 9SM OVC016 M04/M07 A3036 RMK SLP282 T10351071 11024 21039 WSI/SWOB
Loading
Personal Weather Stations






























Interactive Weather Map New forecast layout! Learn more

10-Day Weather Forecast

Advertisements
Track Severe Weather on mobile